sensor_id;sensor_type;location;lat;lon;timestamp;P1;durP1;ratioP1;P2;durP2;ratioP2
62071;SDS011;48031;48.542;13.232;2024-02-21T00:01:41;3.47;;;1.88;;
62071;SDS011;48031;48.542;13.232;2024-02-21T00:05:43;3.42;;;1.90;;
62071;SDS011;48031;48.542;13.232;2024-02-21T00:09:46;5.47;;;1.95;;
62071;SDS011;48031;48.542;13.232;2024-02-21T00:13:47;3.78;;;1.67;;
62071;SDS011;48031;48.542;13.232;2024-02-21T00:17:49;4.05;;;2.15;;
62071;SDS011;48031;48.542;13.232;2024-02-21T00:21:51;2.72;;;1.60;;
62071;SDS011;48031;48.542;13.232;2024-02-21T00:25:53;4.93;;;1.85;;
62071;SDS011;48031;48.542;13.232;2024-02-21T00:29:55;3.60;;;1.90;;
62071;SDS011;48031;48.542;13.232;2024-02-21T00:33:57;4.72;;;2.08;;
62071;SDS011;48031;48.542;13.232;2024-02-21T00:37:59;3.05;;;1.60;;
62071;SDS011;48031;48.542;13.232;2024-02-21T00:42:01;5.22;;;1.60;;
62071;SDS011;48031;48.542;13.232;2024-02-21T00:46:05;3.30;;;1.50;;
62071;SDS011;48031;48.542;13.232;2024-02-21T00:50:07;1.88;;;1.48;;
62071;SDS011;48031;48.542;13.232;2024-02-21T00:54:11;5.32;;;1.98;;
62071;SDS011;48031;48.542;13.232;2024-02-21T00:58:13;4.15;;;1.83;;
62071;SDS011;48031;48.542;13.232;2024-02-21T01:02:14;6.15;;;2.30;;
62071;SDS011;48031;48.542;13.232;2024-02-21T01:06:17;5.32;;;1.85;;
62071;SDS011;48031;48.542;13.232;2024-02-21T01:10:19;3.15;;;1.50;;
62071;SDS011;48031;48.542;13.232;2024-02-21T01:14:21;4.55;;;1.40;;
62071;SDS011;48031;48.542;13.232;2024-02-21T01:18:24;1.77;;;1.30;;
62071;SDS011;48031;48.542;13.232;2024-02-21T01:22:25;2.45;;;1.30;;
62071;SDS011;48031;48.542;13.232;2024-02-21T01:26:27;1.80;;;1.20;;
62071;SDS011;48031;48.542;13.232;2024-02-21T01:30:29;1.17;;;1.02;;
62071;SDS011;48031;48.542;13.232;2024-02-21T01:34:31;7.35;;;1.30;;
62071;SDS011;48031;48.542;13.232;2024-02-21T01:38:34;2.42;;;1.42;;
62071;SDS011;48031;48.542;13.232;2024-02-21T01:42:39;1.75;;;1.45;;
62071;SDS011;48031;48.542;13.232;2024-02-21T01:46:42;3.85;;;1.50;;
62071;SDS011;48031;48.542;13.232;2024-02-21T01:50:47;2.13;;;1.60;;
62071;SDS011;48031;48.542;13.232;2024-02-21T01:54:50;2.38;;;1.73;;
62071;SDS011;48031;48.542;13.232;2024-02-21T01:58:52;2.13;;;1.52;;
62071;SDS011;48031;48.542;13.232;2024-02-21T02:02:54;4.13;;;1.90;;
62071;SDS011;48031;48.542;13.232;2024-02-21T02:06:57;3.85;;;1.70;;
62071;SDS011;48031;48.542;13.232;2024-02-21T02:11:01;3.08;;;1.60;;
62071;SDS011;48031;48.542;13.232;2024-02-21T02:15:03;8.20;;;2.05;;
62071;SDS011;48031;48.542;13.232;2024-02-21T02:19:08;2.90;;;1.67;;
62071;SDS011;48031;48.542;13.232;2024-02-21T02:27:19;2.05;;;1.40;;
62071;SDS011;48031;48.542;13.232;2024-02-21T02:31:20;2.22;;;1.50;;
62071;SDS011;48031;48.542;13.232;2024-02-21T02:35:22;4.25;;;1.80;;
62071;SDS011;48031;48.542;13.232;2024-02-21T02:39:24;2.88;;;1.50;;
62071;SDS011;48031;48.542;13.232;2024-02-21T02:43:26;1.98;;;1.30;;
62071;SDS011;48031;48.542;13.232;2024-02-21T02:47:27;4.45;;;1.58;;
62071;SDS011;48031;48.542;13.232;2024-02-21T02:51:29;4.60;;;1.77;;
62071;SDS011;48031;48.542;13.232;2024-02-21T02:55:31;1.85;;;1.10;;
62071;SDS011;48031;48.542;13.232;2024-02-21T02:59:33;3.30;;;1.55;;
62071;SDS011;48031;48.542;13.232;2024-02-21T03:03:35;3.85;;;1.70;;
62071;SDS011;48031;48.542;13.232;2024-02-21T03:07:37;3.85;;;1.65;;
62071;SDS011;48031;48.542;13.232;2024-02-21T03:11:39;4.18;;;2.00;;
62071;SDS011;48031;48.542;13.232;2024-02-21T03:15:42;2.03;;;1.50;;
62071;SDS011;48031;48.542;13.232;2024-02-21T03:19:45;5.78;;;2.00;;
62071;SDS011;48031;48.542;13.232;2024-02-21T03:23:47;5.20;;;1.90;;
62071;SDS011;48031;48.542;13.232;2024-02-21T03:27:49;3.05;;;1.90;;
62071;SDS011;48031;48.542;13.232;2024-02-21T03:31:51;3.88;;;1.52;;
62071;SDS011;48031;48.542;13.232;2024-02-21T03:35:52;2.13;;;1.58;;
62071;SDS011;48031;48.542;13.232;2024-02-21T03:39:54;2.42;;;1.40;;
62071;SDS011;48031;48.542;13.232;2024-02-21T03:43:56;1.55;;;1.20;;
62071;SDS011;48031;48.542;13.232;2024-02-21T03:47:58;1.77;;;1.30;;
62071;SDS011;48031;48.542;13.232;2024-02-21T03:52:01;2.17;;;1.15;;
62071;SDS011;48031;48.542;13.232;2024-02-21T03:56:03;3.13;;;1.20;;
62071;SDS011;48031;48.542;13.232;2024-02-21T04:00:06;3.08;;;1.23;;
62071;SDS011;48031;48.542;13.232;2024-02-21T04:04:12;3.33;;;1.27;;
62071;SDS011;48031;48.542;13.232;2024-02-21T04:08:15;4.65;;;1.60;;
62071;SDS011;48031;48.542;13.232;2024-02-21T04:12:17;1.80;;;1.50;;
62071;SDS011;48031;48.542;13.232;2024-02-21T04:16:18;1.33;;;1.10;;
62071;SDS011;48031;48.542;13.232;2024-02-21T04:20:20;3.40;;;1.52;;
62071;SDS011;48031;48.542;13.232;2024-02-21T04:24:22;1.00;;;0.90;;
62071;SDS011;48031;48.542;13.232;2024-02-21T04:28:25;1.33;;;1.20;;
62071;SDS011;48031;48.542;13.232;2024-02-21T04:32:26;3.30;;;1.55;;
62071;SDS011;48031;48.542;13.232;2024-02-21T04:36:29;1.35;;;1.10;;
62071;SDS011;48031;48.542;13.232;2024-02-21T04:40:31;1.98;;;1.20;;
62071;SDS011;48031;48.542;13.232;2024-02-21T04:44:34;4.05;;;1.35;;
62071;SDS011;48031;48.542;13.232;2024-02-21T04:48:36;3.40;;;1.63;;
62071;SDS011;48031;48.542;13.232;2024-02-21T04:52:38;2.05;;;1.60;;
62071;SDS011;48031;48.542;13.232;2024-02-21T04:56:41;1.95;;;1.58;;
62071;SDS011;48031;48.542;13.232;2024-02-21T05:00:43;2.15;;;1.50;;
62071;SDS011;48031;48.542;13.232;2024-02-21T05:04:46;2.22;;;1.67;;
62071;SDS011;48031;48.542;13.232;2024-02-21T05:08:48;1.88;;;1.20;;
62071;SDS011;48031;48.542;13.232;2024-02-21T05:12:50;5.38;;;1.70;;
62071;SDS011;48031;48.542;13.232;2024-02-21T05:16:53;4.85;;;1.35;;
62071;SDS011;48031;48.542;13.232;2024-02-21T05:20:55;1.38;;;1.27;;
62071;SDS011;48031;48.542;13.232;2024-02-21T05:24:58;2.13;;;1.20;;
62071;SDS011;48031;48.542;13.232;2024-02-21T05:29:00;3.63;;;1.40;;
62071;SDS011;48031;48.542;13.232;2024-02-21T05:33:06;2.38;;;1.83;;
62071;SDS011;48031;48.542;13.232;2024-02-21T05:37:09;3.63;;;1.27;;
62071;SDS011;48031;48.542;13.232;2024-02-21T05:41:11;4.32;;;1.48;;
62071;SDS011;48031;48.542;13.232;2024-02-21T05:45:13;10.30;;;1.58;;
62071;SDS011;48031;48.542;13.232;2024-02-21T05:49:17;1.50;;;0.93;;
62071;SDS011;48031;48.542;13.232;2024-02-21T05:53:19;3.08;;;1.65;;
62071;SDS011;48031;48.542;13.232;2024-02-21T05:57:22;1.83;;;1.50;;
62071;SDS011;48031;48.542;13.232;2024-02-21T06:01:24;2.40;;;1.50;;
62071;SDS011;48031;48.542;13.232;2024-02-21T06:05:27;6.93;;;1.70;;
62071;SDS011;48031;48.542;13.232;2024-02-21T06:09:29;2.40;;;1.05;;
62071;SDS011;48031;48.542;13.232;2024-02-21T06:13:31;4.53;;;1.52;;
62071;SDS011;48031;48.542;13.232;2024-02-21T06:17:33;2.67;;;1.40;;
62071;SDS011;48031;48.542;13.232;2024-02-21T06:21:36;1.55;;;1.17;;
62071;SDS011;48031;48.542;13.232;2024-02-21T06:25:38;1.38;;;1.23;;
62071;SDS011;48031;48.542;13.232;2024-02-21T06:29:41;3.20;;;1.35;;
62071;SDS011;48031;48.542;13.232;2024-02-21T06:33:42;1.83;;;1.25;;
62071;SDS011;48031;48.542;13.232;2024-02-21T06:37:45;1.63;;;1.20;;
62071;SDS011;48031;48.542;13.232;2024-02-21T06:41:52;1.30;;;1.00;;
62071;SDS011;48031;48.542;13.232;2024-02-21T06:45:55;4.28;;;1.50;;
62071;SDS011;48031;48.542;13.232;2024-02-21T06:49:58;2.13;;;1.25;;
62071;SDS011;48031;48.542;13.232;2024-02-21T06:54:00;2.13;;;1.40;;
62071;SDS011;48031;48.542;13.232;2024-02-21T06:58:02;1.50;;;1.40;;
62071;SDS011;48031;48.542;13.232;2024-02-21T07:02:04;2.78;;;1.25;;
62071;SDS011;48031;48.542;13.232;2024-02-21T07:06:05;1.33;;;1.20;;
62071;SDS011;48031;48.542;13.232;2024-02-21T07:10:08;2.03;;;1.20;;
62071;SDS011;48031;48.542;13.232;2024-02-21T07:14:10;1.63;;;1.30;;
62071;SDS011;48031;48.542;13.232;2024-02-21T07:18:12;2.97;;;1.15;;
62071;SDS011;48031;48.542;13.232;2024-02-21T07:22:14;2.20;;;1.45;;
62071;SDS011;48031;48.542;13.232;2024-02-21T07:26:16;3.75;;;1.20;;
62071;SDS011;48031;48.542;13.232;2024-02-21T07:30:18;1.77;;;1.20;;
62071;SDS011;48031;48.542;13.232;2024-02-21T07:34:20;1.52;;;1.30;;
62071;SDS011;48031;48.542;13.232;2024-02-21T07:38:23;1.33;;;1.13;;
62071;SDS011;48031;48.542;13.232;2024-02-21T07:42:24;1.73;;;1.30;;
62071;SDS011;48031;48.542;13.232;2024-02-21T07:46:26;1.10;;;1.10;;
62071;SDS011;48031;48.542;13.232;2024-02-21T07:50:28;4.35;;;1.20;;
62071;SDS011;48031;48.542;13.232;2024-02-21T07:54:30;6.75;;;1.38;;
62071;SDS011;48031;48.542;13.232;2024-02-21T07:58:31;1.70;;;1.20;;
62071;SDS011;48031;48.542;13.232;2024-02-21T08:02:33;2.08;;;1.30;;
62071;SDS011;48031;48.542;13.232;2024-02-21T08:06:35;1.40;;;1.30;;
62071;SDS011;48031;48.542;13.232;2024-02-21T08:10:37;3.17;;;1.85;;
62071;SDS011;48031;48.542;13.232;2024-02-21T08:14:41;8.05;;;1.83;;
62071;SDS011;48031;48.542;13.232;2024-02-21T08:18:44;2.55;;;1.80;;
62071;SDS011;48031;48.542;13.232;2024-02-21T08:22:45;3.92;;;2.15;;
62071;SDS011;48031;48.542;13.232;2024-02-21T08:26:47;1.63;;;1.40;;
62071;SDS011;48031;48.542;13.232;2024-02-21T08:30:49;2.97;;;1.85;;
62071;SDS011;48031;48.542;13.232;2024-02-21T08:34:50;4.18;;;1.50;;
62071;SDS011;48031;48.542;13.232;2024-02-21T08:38:53;4.45;;;1.60;;
62071;SDS011;48031;48.542;13.232;2024-02-21T08:42:55;2.03;;;1.67;;
62071;SDS011;48031;48.542;13.232;2024-02-21T08:46:57;2.17;;;1.45;;
62071;SDS011;48031;48.542;13.232;2024-02-21T08:50:59;1.90;;;1.02;;
62071;SDS011;48031;48.542;13.232;2024-02-21T08:55:01;1.55;;;1.25;;
62071;SDS011;48031;48.542;13.232;2024-02-21T08:59:03;1.17;;;1.08;;
62071;SDS011;48031;48.542;13.232;2024-02-21T09:03:05;1.60;;;1.25;;
62071;SDS011;48031;48.542;13.232;2024-02-21T09:07:07;5.70;;;1.40;;
62071;SDS011;48031;48.542;13.232;2024-02-21T09:11:09;1.10;;;1.10;;
62071;SDS011;48031;48.542;13.232;2024-02-21T09:15:11;2.60;;;1.20;;
62071;SDS011;48031;48.542;13.232;2024-02-21T09:19:13;2.67;;;1.30;;
62071;SDS011;48031;48.542;13.232;2024-02-21T09:23:15;1.83;;;1.30;;
62071;SDS011;48031;48.542;13.232;2024-02-21T09:27:17;4.43;;;1.50;;
62071;SDS011;48031;48.542;13.232;2024-02-21T09:31:19;1.88;;;1.38;;
62071;SDS011;48031;48.542;13.232;2024-02-21T09:35:22;1.50;;;1.40;;
62071;SDS011;48031;48.542;13.232;2024-02-21T09:39:25;4.53;;;1.05;;
62071;SDS011;48031;48.542;13.232;2024-02-21T09:43:27;2.65;;;1.00;;
62071;SDS011;48031;48.542;13.232;2024-02-21T09:47:31;2.45;;;1.25;;
62071;SDS011;48031;48.542;13.232;2024-02-21T09:51:35;3.53;;;1.27;;
62071;SDS011;48031;48.542;13.232;2024-02-21T09:55:38;4.65;;;1.30;;
62071;SDS011;48031;48.542;13.232;2024-02-21T09:59:42;2.13;;;0.93;;
62071;SDS011;48031;48.542;13.232;2024-02-21T10:03:45;1.10;;;0.90;;
62071;SDS011;48031;48.542;13.232;2024-02-21T10:07:48;1.55;;;1.30;;
62071;SDS011;48031;48.542;13.232;2024-02-21T10:11:51;2.40;;;1.20;;
62071;SDS011;48031;48.542;13.232;2024-02-21T10:16:08;2.42;;;1.08;;
62071;SDS011;48031;48.542;13.232;2024-02-21T10:20:10;1.27;;;1.17;;
62071;SDS011;48031;48.542;13.232;2024-02-21T10:24:12;1.40;;;1.00;;
62071;SDS011;48031;48.542;13.232;2024-02-21T10:28:15;2.22;;;1.02;;
62071;SDS011;48031;48.542;13.232;2024-02-21T10:32:18;2.60;;;1.30;;
62071;SDS011;48031;48.542;13.232;2024-02-21T10:36:21;8.20;;;1.60;;
62071;SDS011;48031;48.542;13.232;2024-02-21T10:40:27;2.00;;;1.40;;
62071;SDS011;48031;48.542;13.232;2024-02-21T10:44:30;4.50;;;1.20;;
62071;SDS011;48031;48.542;13.232;2024-02-21T10:48:34;3.03;;;1.42;;
62071;SDS011;48031;48.542;13.232;2024-02-21T10:56:42;2.75;;;1.20;;
62071;SDS011;48031;48.542;13.232;2024-02-21T11:00:45;4.80;;;1.20;;
62071;SDS011;48031;48.542;13.232;2024-02-21T11:04:47;16.60;;;1.90;;
62071;SDS011;48031;48.542;13.232;2024-02-21T11:13:06;3.20;;;1.10;;
62071;SDS011;48031;48.542;13.232;2024-02-21T11:17:15;0.90;;;0.90;;
62071;SDS011;48031;48.542;13.232;2024-02-21T11:21:18;1.92;;;1.15;;
62071;SDS011;48031;48.542;13.232;2024-02-21T11:25:23;0.88;;;0.80;;
62071;SDS011;48031;48.542;13.232;2024-02-21T11:29:25;2.13;;;1.00;;
62071;SDS011;48031;48.542;13.232;2024-02-21T11:33:28;3.13;;;0.90;;
62071;SDS011;48031;48.542;13.232;2024-02-21T11:37:31;2.42;;;0.85;;
62071;SDS011;48031;48.542;13.232;2024-02-21T11:41:39;2.65;;;1.05;;
62071;SDS011;48031;48.542;13.232;2024-02-21T11:45:40;1.88;;;1.02;;
62071;SDS011;48031;48.542;13.232;2024-02-21T11:49:46;1.23;;;0.90;;
62071;SDS011;48031;48.542;13.232;2024-02-21T11:53:53;2.13;;;0.77;;
62071;SDS011;48031;48.542;13.232;2024-02-21T11:58:03;7.80;;;1.30;;
62071;SDS011;48031;48.542;13.232;2024-02-21T12:02:06;1.00;;;0.80;;
62071;SDS011;48031;48.542;13.232;2024-02-21T12:06:08;6.75;;;1.20;;
62071;SDS011;48031;48.542;13.232;2024-02-21T12:10:13;1.40;;;0.80;;
62071;SDS011;48031;48.542;13.232;2024-02-21T12:14:18;1.05;;;0.85;;
62071;SDS011;48031;48.542;13.232;2024-02-21T12:18:20;11.18;;;0.95;;
62071;SDS011;48031;48.542;13.232;2024-02-21T12:22:22;15.52;;;1.25;;
62071;SDS011;48031;48.542;13.232;2024-02-21T12:26:23;3.22;;;0.88;;
62071;SDS011;48031;48.542;13.232;2024-02-21T12:30:25;9.27;;;1.20;;
62071;SDS011;48031;48.542;13.232;2024-02-21T12:34:28;4.03;;;0.80;;
62071;SDS011;48031;48.542;13.232;2024-02-21T12:38:49;4.82;;;1.05;;
62071;SDS011;48031;48.542;13.232;2024-02-21T12:42:50;0.90;;;0.90;;
62071;SDS011;48031;48.542;13.232;2024-02-21T12:46:54;1.42;;;0.85;;
62071;SDS011;48031;48.542;13.232;2024-02-21T12:50:56;1.15;;;0.85;;
62071;SDS011;48031;48.542;13.232;2024-02-21T12:54:58;5.15;;;0.90;;
62071;SDS011;48031;48.542;13.232;2024-02-21T12:59:00;10.45;;;1.30;;
62071;SDS011;48031;48.542;13.232;2024-02-21T13:03:03;15.02;;;1.63;;
62071;SDS011;48031;48.542;13.232;2024-02-21T13:07:05;3.47;;;0.80;;
62071;SDS011;48031;48.542;13.232;2024-02-21T13:11:08;1.48;;;0.80;;
62071;SDS011;48031;48.542;13.232;2024-02-21T13:15:10;3.75;;;1.05;;
62071;SDS011;48031;48.542;13.232;2024-02-21T13:19:13;6.30;;;0.88;;
62071;SDS011;48031;48.542;13.232;2024-02-21T13:23:19;2.73;;;0.80;;
62071;SDS011;48031;48.542;13.232;2024-02-21T13:27:23;3.35;;;0.73;;
62071;SDS011;48031;48.542;13.232;2024-02-21T13:31:24;0.93;;;0.68;;
62071;SDS011;48031;48.542;13.232;2024-02-21T13:35:28;1.23;;;0.60;;
62071;SDS011;48031;48.542;13.232;2024-02-21T13:39:30;7.88;;;0.90;;
62071;SDS011;48031;48.542;13.232;2024-02-21T13:43:31;2.47;;;0.80;;
62071;SDS011;48031;48.542;13.232;2024-02-21T13:47:33;7.28;;;1.58;;
62071;SDS011;48031;48.542;13.232;2024-02-21T13:51:35;3.95;;;0.70;;
62071;SDS011;48031;48.542;13.232;2024-02-21T13:55:42;2.58;;;0.98;;
62071;SDS011;48031;48.542;13.232;2024-02-21T13:59:45;1.30;;;0.80;;
62071;SDS011;48031;48.542;13.232;2024-02-21T14:03:47;6.18;;;0.80;;
62071;SDS011;48031;48.542;13.232;2024-02-21T14:07:49;3.88;;;0.70;;
62071;SDS011;48031;48.542;13.232;2024-02-21T14:11:51;6.85;;;0.90;;
62071;SDS011;48031;48.542;13.232;2024-02-21T14:15:53;7.55;;;0.80;;
62071;SDS011;48031;48.542;13.232;2024-02-21T14:19:55;2.70;;;0.63;;
62071;SDS011;48031;48.542;13.232;2024-02-21T14:23:56;7.72;;;0.82;;
62071;SDS011;48031;48.542;13.232;2024-02-21T14:27:58;8.88;;;1.15;;
62071;SDS011;48031;48.542;13.232;2024-02-21T14:32:02;5.95;;;0.70;;
62071;SDS011;48031;48.542;13.232;2024-02-21T14:36:05;5.15;;;0.90;;
62071;SDS011;48031;48.542;13.232;2024-02-21T14:40:08;9.35;;;1.02;;
62071;SDS011;48031;48.542;13.232;2024-02-21T14:44:10;15.02;;;1.48;;
62071;SDS011;48031;48.542;13.232;2024-02-21T14:48:12;11.43;;;1.60;;
62071;SDS011;48031;48.542;13.232;2024-02-21T14:52:14;12.05;;;1.10;;
62071;SDS011;48031;48.542;13.232;2024-02-21T14:56:18;16.20;;;1.30;;
62071;SDS011;48031;48.542;13.232;2024-02-21T15:00:21;17.83;;;2.13;;
62071;SDS011;48031;48.542;13.232;2024-02-21T15:04:29;10.70;;;0.90;;
62071;SDS011;48031;48.542;13.232;2024-02-21T15:08:32;7.18;;;1.10;;
62071;SDS011;48031;48.542;13.232;2024-02-21T15:12:34;5.63;;;1.02;;
62071;SDS011;48031;48.542;13.232;2024-02-21T15:16:36;10.20;;;1.17;;
62071;SDS011;48031;48.542;13.232;2024-02-21T15:20:39;7.03;;;1.00;;
62071;SDS011;48031;48.542;13.232;2024-02-21T15:24:41;6.53;;;0.98;;
62071;SDS011;48031;48.542;13.232;2024-02-21T15:28:43;8.50;;;1.10;;
62071;SDS011;48031;48.542;13.232;2024-02-21T15:32:45;8.75;;;0.85;;
62071;SDS011;48031;48.542;13.232;2024-02-21T15:36:48;1.63;;;0.80;;
62071;SDS011;48031;48.542;13.232;2024-02-21T15:40:50;1.33;;;0.80;;
62071;SDS011;48031;48.542;13.232;2024-02-21T15:44:51;2.90;;;1.00;;
62071;SDS011;48031;48.542;13.232;2024-02-21T15:48:54;2.15;;;0.70;;
62071;SDS011;48031;48.542;13.232;2024-02-21T15:52:57;1.13;;;0.80;;
62071;SDS011;48031;48.542;13.232;2024-02-21T15:56:58;0.90;;;0.70;;
62071;SDS011;48031;48.542;13.232;2024-02-21T16:01:00;1.45;;;0.82;;
62071;SDS011;48031;48.542;13.232;2024-02-21T16:05:05;0.70;;;0.70;;
62071;SDS011;48031;48.542;13.232;2024-02-21T16:09:10;2.03;;;0.93;;
62071;SDS011;48031;48.542;13.232;2024-02-21T16:13:12;3.13;;;0.90;;
62071;SDS011;48031;48.542;13.232;2024-02-21T16:17:14;2.70;;;0.70;;
62071;SDS011;48031;48.542;13.232;2024-02-21T16:21:16;2.05;;;0.70;;
62071;SDS011;48031;48.542;13.232;2024-02-21T16:25:18;0.95;;;0.80;;
62071;SDS011;48031;48.542;13.232;2024-02-21T16:29:20;2.35;;;0.90;;
62071;SDS011;48031;48.542;13.232;2024-02-21T16:33:21;0.95;;;0.85;;
62071;SDS011;48031;48.542;13.232;2024-02-21T16:37:26;1.60;;;0.80;;
62071;SDS011;48031;48.542;13.232;2024-02-21T16:41:28;1.35;;;0.90;;
62071;SDS011;48031;48.542;13.232;2024-02-21T16:45:30;0.77;;;0.73;;
62071;SDS011;48031;48.542;13.232;2024-02-21T16:49:32;1.58;;;0.95;;
62071;SDS011;48031;48.542;13.232;2024-02-21T16:53:38;0.82;;;0.80;;
62071;SDS011;48031;48.542;13.232;2024-02-21T16:57:40;1.30;;;0.80;;
62071;SDS011;48031;48.542;13.232;2024-02-21T17:01:42;1.20;;;0.80;;
62071;SDS011;48031;48.542;13.232;2024-02-21T17:05:46;0.88;;;0.88;;
62071;SDS011;48031;48.542;13.232;2024-02-21T17:09:55;1.10;;;1.00;;
62071;SDS011;48031;48.542;13.232;2024-02-21T17:13:57;1.52;;;1.00;;
62071;SDS011;48031;48.542;13.232;2024-02-21T17:17:59;4.35;;;0.90;;
62071;SDS011;48031;48.542;13.232;2024-02-21T17:22:01;1.73;;;0.98;;
62071;SDS011;48031;48.542;13.232;2024-02-21T17:26:05;1.52;;;1.10;;
62071;SDS011;48031;48.542;13.232;2024-02-21T17:30:07;1.70;;;1.20;;
62071;SDS011;48031;48.542;13.232;2024-02-21T17:34:12;3.35;;;1.20;;
62071;SDS011;48031;48.542;13.232;2024-02-21T17:38:14;3.72;;;1.65;;
62071;SDS011;48031;48.542;13.232;2024-02-21T17:42:16;4.07;;;1.30;;
62071;SDS011;48031;48.542;13.232;2024-02-21T17:46:18;2.15;;;1.10;;
62071;SDS011;48031;48.542;13.232;2024-02-21T17:50:20;1.33;;;1.02;;
62071;SDS011;48031;48.542;13.232;2024-02-21T17:54:22;2.30;;;1.00;;
62071;SDS011;48031;48.542;13.232;2024-02-21T17:58:24;1.35;;;1.00;;
62071;SDS011;48031;48.542;13.232;2024-02-21T18:02:27;1.00;;;0.90;;
62071;SDS011;48031;48.542;13.232;2024-02-21T18:06:29;1.30;;;1.00;;
62071;SDS011;48031;48.542;13.232;2024-02-21T18:10:32;2.40;;;1.60;;
62071;SDS011;48031;48.542;13.232;2024-02-21T18:14:34;3.15;;;1.60;;
62071;SDS011;48031;48.542;13.232;2024-02-21T18:18:35;3.20;;;1.63;;
62071;SDS011;48031;48.542;13.232;2024-02-21T18:22:37;1.38;;;1.27;;
62071;SDS011;48031;48.542;13.232;2024-02-21T18:26:39;3.25;;;1.77;;
62071;SDS011;48031;48.542;13.232;2024-02-21T18:30:42;3.47;;;1.90;;
62071;SDS011;48031;48.542;13.232;2024-02-21T18:34:43;1.33;;;1.17;;
62071;SDS011;48031;48.542;13.232;2024-02-21T18:38:45;1.60;;;1.17;;
62071;SDS011;48031;48.542;13.232;2024-02-21T18:42:47;3.50;;;1.95;;
62071;SDS011;48031;48.542;13.232;2024-02-21T18:46:49;1.30;;;1.20;;
62071;SDS011;48031;48.542;13.232;2024-02-21T18:50:53;1.58;;;1.48;;
62071;SDS011;48031;48.542;13.232;2024-02-21T18:54:54;2.75;;;1.30;;
62071;SDS011;48031;48.542;13.232;2024-02-21T18:58:57;4.57;;;1.83;;
62071;SDS011;48031;48.542;13.232;2024-02-21T19:02:59;2.03;;;1.50;;
62071;SDS011;48031;48.542;13.232;2024-02-21T19:07:02;3.72;;;1.95;;
62071;SDS011;48031;48.542;13.232;2024-02-21T19:11:03;1.67;;;1.33;;
62071;SDS011;48031;48.542;13.232;2024-02-21T19:15:08;2.40;;;1.80;;
62071;SDS011;48031;48.542;13.232;2024-02-21T19:19:10;7.63;;;1.95;;
62071;SDS011;48031;48.542;13.232;2024-02-21T19:23:12;2.58;;;1.52;;
62071;SDS011;48031;48.542;13.232;2024-02-21T19:27:14;2.22;;;1.60;;
62071;SDS011;48031;48.542;13.232;2024-02-21T19:31:15;1.27;;;1.17;;
62071;SDS011;48031;48.542;13.232;2024-02-21T19:35:17;2.55;;;1.65;;
62071;SDS011;48031;48.542;13.232;2024-02-21T19:39:21;1.98;;;1.45;;
62071;SDS011;48031;48.542;13.232;2024-02-21T19:43:25;4.43;;;1.40;;
62071;SDS011;48031;48.542;13.232;2024-02-21T19:47:27;2.10;;;1.38;;
62071;SDS011;48031;48.542;13.232;2024-02-21T19:51:29;3.85;;;2.08;;
62071;SDS011;48031;48.542;13.232;2024-02-21T19:55:30;2.05;;;1.10;;
62071;SDS011;48031;48.542;13.232;2024-02-21T19:59:33;1.52;;;1.10;;
62071;SDS011;48031;48.542;13.232;2024-02-21T20:03:37;3.60;;;1.70;;
62071;SDS011;48031;48.542;13.232;2024-02-21T20:07:39;1.55;;;1.25;;
62071;SDS011;48031;48.542;13.232;2024-02-21T20:11:41;3.60;;;1.70;;
62071;SDS011;48031;48.542;13.232;2024-02-21T20:15:43;4.13;;;1.52;;
62071;SDS011;48031;48.542;13.232;2024-02-21T20:19:45;1.60;;;1.48;;
62071;SDS011;48031;48.542;13.232;2024-02-21T20:23:48;1.92;;;1.67;;
62071;SDS011;48031;48.542;13.232;2024-02-21T20:27:53;6.25;;;1.80;;
62071;SDS011;48031;48.542;13.232;2024-02-21T20:31:55;2.83;;;1.60;;
62071;SDS011;48031;48.542;13.232;2024-02-21T20:36:01;2.10;;;1.50;;
62071;SDS011;48031;48.542;13.232;2024-02-21T20:40:03;2.58;;;1.85;;
62071;SDS011;48031;48.542;13.232;2024-02-21T20:44:08;3.38;;;2.15;;
62071;SDS011;48031;48.542;13.232;2024-02-21T20:48:10;3.83;;;1.80;;
62071;SDS011;48031;48.542;13.232;2024-02-21T20:52:12;3.45;;;2.20;;
62071;SDS011;48031;48.542;13.232;2024-02-21T20:56:15;3.03;;;2.30;;
62071;SDS011;48031;48.542;13.232;2024-02-21T21:00:17;2.75;;;1.80;;
62071;SDS011;48031;48.542;13.232;2024-02-21T21:04:19;4.45;;;2.42;;
62071;SDS011;48031;48.542;13.232;2024-02-21T21:08:22;1.92;;;1.58;;
62071;SDS011;48031;48.542;13.232;2024-02-21T21:12:24;2.58;;;1.50;;
62071;SDS011;48031;48.542;13.232;2024-02-21T21:16:26;2.60;;;1.73;;
62071;SDS011;48031;48.542;13.232;2024-02-21T21:20:33;3.97;;;1.60;;
62071;SDS011;48031;48.542;13.232;2024-02-21T21:24:36;1.80;;;1.48;;
62071;SDS011;48031;48.542;13.232;2024-02-21T21:28:38;1.65;;;1.30;;
62071;SDS011;48031;48.542;13.232;2024-02-21T21:32:40;2.25;;;1.52;;
62071;SDS011;48031;48.542;13.232;2024-02-21T21:36:42;2.15;;;1.48;;
62071;SDS011;48031;48.542;13.232;2024-02-21T21:40:44;1.95;;;1.40;;
62071;SDS011;48031;48.542;13.232;2024-02-21T21:44:47;1.83;;;1.45;;
62071;SDS011;48031;48.542;13.232;2024-02-21T21:48:49;2.08;;;1.50;;
62071;SDS011;48031;48.542;13.232;2024-02-21T21:52:51;3.45;;;1.80;;
62071;SDS011;48031;48.542;13.232;2024-02-21T21:56:53;2.25;;;1.60;;
62071;SDS011;48031;48.542;13.232;2024-02-21T22:00:54;2.53;;;1.60;;
62071;SDS011;48031;48.542;13.232;2024-02-21T22:04:57;2.13;;;1.52;;
62071;SDS011;48031;48.542;13.232;2024-02-21T22:08:59;2.28;;;1.33;;
62071;SDS011;48031;48.542;13.232;2024-02-21T22:13:01;1.60;;;1.45;;
62071;SDS011;48031;48.542;13.232;2024-02-21T22:17:03;2.17;;;1.33;;
62071;SDS011;48031;48.542;13.232;2024-02-21T22:21:04;2.15;;;1.40;;
62071;SDS011;48031;48.542;13.232;2024-02-21T22:25:06;1.67;;;1.58;;
62071;SDS011;48031;48.542;13.232;2024-02-21T22:29:10;2.88;;;1.20;;
62071;SDS011;48031;48.542;13.232;2024-02-21T22:33:13;10.98;;;1.73;;
62071;SDS011;48031;48.542;13.232;2024-02-21T22:37:15;1.90;;;1.20;;
62071;SDS011;48031;48.542;13.232;2024-02-21T22:41:17;2.08;;;1.40;;
62071;SDS011;48031;48.542;13.232;2024-02-21T22:45:21;1.75;;;1.42;;
62071;SDS011;48031;48.542;13.232;2024-02-21T22:49:22;2.83;;;1.70;;
62071;SDS011;48031;48.542;13.232;2024-02-21T22:53:25;2.78;;;1.92;;
62071;SDS011;48031;48.542;13.232;2024-02-21T22:57:27;2.53;;;1.75;;
62071;SDS011;48031;48.542;13.232;2024-02-21T23:01:28;2.72;;;1.40;;
62071;SDS011;48031;48.542;13.232;2024-02-21T23:05:30;2.97;;;1.63;;
62071;SDS011;48031;48.542;13.232;2024-02-21T23:09:32;1.33;;;1.23;;
62071;SDS011;48031;48.542;13.232;2024-02-21T23:13:34;3.33;;;1.52;;
62071;SDS011;48031;48.542;13.232;2024-02-21T23:17:39;4.07;;;2.10;;
62071;SDS011;48031;48.542;13.232;2024-02-21T23:21:42;7.00;;;2.40;;
62071;SDS011;48031;48.542;13.232;2024-02-21T23:25:44;3.92;;;1.83;;
62071;SDS011;48031;48.542;13.232;2024-02-21T23:29:46;2.95;;;1.88;;
62071;SDS011;48031;48.542;13.232;2024-02-21T23:33:48;4.20;;;2.20;;
62071;SDS011;48031;48.542;13.232;2024-02-21T23:37:50;3.28;;;2.00;;
62071;SDS011;48031;48.542;13.232;2024-02-21T23:41:52;5.15;;;1.95;;
62071;SDS011;48031;48.542;13.232;2024-02-21T23:45:54;8.20;;;2.08;;
62071;SDS011;48031;48.542;13.232;2024-02-21T23:50:00;15.07;;;2.53;;
62071;SDS011;48031;48.542;13.232;2024-02-21T23:54:02;16.83;;;2.42;;
62071;SDS011;48031;48.542;13.232;2024-02-21T23:58:04;6.93;;;2.92;;
